Time,TemperatureF,DewpointF,PressureIn,WindDirection,WindDirectionDegrees,WindSpeedMPH,WindSpeedGustMPH,Humidity,HourlyPrecipIn,Conditions,Clouds,dailyrainin,SoftwareType,DateUTC
2013-01-25 00:01:00,18.0,1.3,30.45,WSW,257,5.4,13.6,47,0.00,,---,0.00,VWS V12.08,2013-01-25 05:01:00,
2013-01-25 00:21:00,17.8,1.1,30.45,NW,306,3.6,11.0,47,0.00,,---,0.00,VWS V12.08,2013-01-25 05:21:00,
2013-01-25 00:41:00,16.9,0.8,30.45,WNW,290,0.0,7.6,48,0.00,,---,0.00,VWS V12.08,2013-01-25 05:41:00,
2013-01-25 01:01:00,16.9,0.8,30.45,WNW,300,4.0,14.1,48,0.00,,---,0.00,VWS V12.08,2013-01-25 06:01:00,
2013-01-25 01:21:00,16.2,0.1,30.45,WNW,298,0.0,8.1,48,0.00,,---,0.00,VWS V12.08,2013-01-25 06:21:00,
2013-01-25 01:41:00,16.0,-0.1,30.45,North,353,3.6,5.4,48,0.00,,---,0.00,VWS V12.08,2013-01-25 06:41:00,
2013-01-25 02:01:00,15.1,-0.9,30.45,WSW,237,0.0,3.6,48,0.00,,---,0.00,VWS V12.08,2013-01-25 07:01:00,
2013-01-25 02:21:00,14.7,-1.2,30.45,NNW,340,0.0,4.0,48,0.00,,---,0.00,VWS V12.08,2013-01-25 07:21:00,
2013-01-25 02:41:00,15.1,-0.9,30.45,NNW,342,0.0,4.0,48,0.00,,---,0.00,VWS V12.08,2013-01-25 07:41:00,
2013-01-25 03:01:00,14.5,-1.4,30.45,SW,222,0.0,5.8,48,0.00,,---,0.00,VWS V12.08,2013-01-25 08:01:00,
2013-01-25 03:21:00,14.2,-1.7,30.45,West,275,0.0,5.4,48,0.00,,---,0.00,VWS V12.08,2013-01-25 08:21:00,
2013-01-25 03:41:00,13.8,-1.6,30.45,NW,309,3.1,4.9,50,0.00,,---,0.00,VWS V12.08,2013-01-25 08:41:00,
2013-01-25 04:01:00,13.6,-1.8,30.45,NNW,332,0.0,3.1,50,0.00,,---,0.00,VWS V12.08,2013-01-25 09:01:00,
2013-01-25 04:21:00,13.3,-2.1,30.45,WNW,303,5.4,5.8,50,0.00,,---,0.00,VWS V12.08,2013-01-25 09:21:00,
2013-01-25 04:41:00,13.5,-1.9,30.45,WNW,282,2.7,6.3,50,0.00,,---,0.00,VWS V12.08,2013-01-25 09:41:00,
2013-01-25 05:01:00,13.5,-1.9,30.45,WNW,289,0.0,5.4,50,0.00,,---,0.00,VWS V12.08,2013-01-25 10:01:00,
2013-01-25 05:21:00,14.2,-1.7,30.45,WNW,289,0.0,4.9,48,0.00,,---,0.00,VWS V12.08,2013-01-25 10:21:00,
2013-01-25 05:41:00,13.8,-1.6,30.42,WNW,299,0.0,6.3,50,0.00,,---,0.00,VWS V12.08,2013-01-25 10:41:00,
2013-01-25 06:01:00,14.2,-1.7,30.42,NNW,343,0.0,6.3,48,0.00,,---,0.00,VWS V12.08,2013-01-25 11:01:00,
2013-01-25 06:21:00,14.4,-1.6,30.42,SW,224,0.0,6.3,48,0.00,,---,0.00,VWS V12.08,2013-01-25 11:21:00,
2013-01-25 06:41:00,14.4,-1.6,30.42,North,4,2.7,5.8,48,0.00,,---,0.00,VWS V12.08,2013-01-25 11:41:00,
2013-01-25 07:01:00,14.4,-1.6,30.40,West,272,0.0,4.0,48,0.00,,---,0.00,VWS V12.08,2013-01-25 12:01:00,
2013-01-25 07:21:00,14.4,-1.6,30.42,WNW,282,0.0,6.3,48,0.00,,---,0.00,VWS V12.08,2013-01-25 12:21:00,
2013-01-25 07:41:00,14.5,-1.4,30.40,West,273,3.6,5.4,48,0.00,,---,0.00,VWS V12.08,2013-01-25 12:41:00,
2013-01-25 08:01:00,14.9,-1.1,30.42,WNW,290,2.2,5.8,48,0.00,,---,0.00,VWS V12.08,2013-01-25 13:01:00,
2013-01-25 08:21:00,15.1,-0.9,30.42,WSW,243,2.7,5.8,48,0.00,,---,0.00,VWS V12.08,2013-01-25 13:21:00,
2013-01-25 08:41:00,15.4,-0.6,30.42,West,262,0.0,5.4,48,0.00,,---,0.00,VWS V12.08,2013-01-25 13:41:00,
2013-01-25 09:01:00,16.0,-0.1,30.42,NW,304,2.7,6.3,48,0.00,,---,0.00,VWS V12.08,2013-01-25 14:01:00,
2013-01-25 09:21:00,16.3,0.3,30.42,WNW,282,3.1,6.3,48,0.00,,---,0.00,VWS V12.08,2013-01-25 14:21:00,
2013-01-25 09:41:00,17.1,0.9,30.40,North,357,5.4,6.3,48,0.00,,---,0.00,VWS V12.08,2013-01-25 14:41:00,
2013-01-25 10:01:00,17.6,1.4,30.40,WSW,253,3.1,5.8,48,0.00,,---,0.00,VWS V12.08,2013-01-25 15:01:00,
2013-01-25 10:21:00,18.3,1.6,30.40,WNW,285,0.0,5.8,47,0.00,,---,0.00,VWS V12.08,2013-01-25 15:21:00,
2013-01-25 10:41:00,18.5,1.8,30.37,East,81,0.0,5.4,47,0.00,,---,0.00,VWS V12.08,2013-01-25 15:41:00,
2013-01-25 11:01:00,19.2,2.4,30.37,NW,316,0.0,4.0,47,0.00,,---,0.00,VWS V12.08,2013-01-25 16:01:00,
2013-01-25 11:21:00,18.7,1.9,30.34,NNW,334,3.6,6.3,47,0.00,,---,0.00,VWS V12.08,2013-01-25 16:21:00,
2013-01-25 11:41:00,20.3,3.4,30.34,West,275,0.0,5.8,47,0.00,,---,0.00,VWS V12.08,2013-01-25 16:41:00,
2013-01-25 12:01:00,20.3,3.4,30.34,SW,231,0.0,6.3,47,0.00,,---,0.00,VWS V12.08,2013-01-25 17:01:00,
2013-01-25 12:21:00,21.0,4.1,30.31,SW,229,2.2,6.3,47,0.00,,---,0.00,VWS V12.08,2013-01-25 17:21:00,
2013-01-25 12:41:00,21.0,4.1,30.31,North,0,0.0,5.8,47,0.00,,---,0.00,VWS V12.08,2013-01-25 17:41:00,
2013-01-25 13:01:00,21.9,4.9,30.28,WNW,302,3.1,5.8,47,0.00,,---,0.00,VWS V12.08,2013-01-25 18:01:00,
2013-01-25 13:21:00,22.3,5.3,30.28,SSW,204,4.5,4.9,47,0.00,,---,0.00,VWS V12.08,2013-01-25 18:21:00,
2013-01-25 13:41:00,22.1,5.1,30.25,West,267,5.8,5.8,47,0.00,,---,0.00,VWS V12.08,2013-01-25 18:41:00,
2013-01-25 14:01:00,23.4,5.7,30.25,SSE,149,0.0,6.3,46,0.00,,---,0.00,VWS V12.08,2013-01-25 19:01:00,
2013-01-25 14:21:00,23.0,5.9,30.22,SE,132,3.6,5.8,47,0.00,,---,0.00,VWS V12.08,2013-01-25 19:21:00,
2013-01-25 14:41:00,23.0,5.9,30.22,West,264,0.0,5.4,47,0.00,,---,0.00,VWS V12.08,2013-01-25 19:41:00,
2013-01-25 15:01:00,23.4,5.7,30.22,ENE,58,0.0,5.8,46,0.00,,---,0.00,VWS V12.08,2013-01-25 20:01:00,
2013-01-25 15:21:00,23.4,5.7,30.22,WSW,251,5.8,8.1,46,0.00,,---,0.00,VWS V12.08,2013-01-25 20:21:00,
2013-01-25 15:41:00,22.5,5.4,30.19,SSW,193,5.4,6.3,47,0.00,,---,0.00,VWS V12.08,2013-01-25 20:41:00,
2013-01-25 16:01:00,21.6,4.6,30.19,SW,216,0.0,8.1,47,0.00,,---,0.00,VWS V12.08,2013-01-25 21:01:00,
2013-01-25 16:21:00,20.7,4.3,30.19,SW,229,0.0,4.0,48,0.00,,---,0.00,VWS V12.08,2013-01-25 21:21:00,
2013-01-25 16:41:00,20.1,3.8,30.16,WSW,237,0.0,6.7,48,0.00,,---,0.00,VWS V12.08,2013-01-25 21:41:00,
2013-01-25 17:01:00,20.3,4.4,30.13,ESE,111,0.0,3.1,50,0.00,,---,0.00,VWS V12.08,2013-01-25 22:01:00,
2013-01-25 17:21:00,19.6,3.8,30.16,WSW,243,0.0,4.0,50,0.00,,---,0.00,VWS V12.08,2013-01-25 22:21:00,
2013-01-25 17:41:00,19.6,3.8,30.13,SW,217,0.0,5.4,50,0.00,,---,0.00,VWS V12.08,2013-01-25 22:41:00,
2013-01-25 18:01:00,19.4,3.6,30.13,SW,217,0.0,0.0,50,0.00,,---,0.00,VWS V12.08,2013-01-25 23:01:00,
2013-01-25 18:21:00,19.8,3.9,30.13,SW,218,0.0,0.0,50,0.00,,---,0.00,VWS V12.08,2013-01-25 23:21:00,
2013-01-25 18:41:00,19.6,3.8,30.13,SW,218,0.0,0.0,50,0.00,,---,0.00,VWS V12.08,2013-01-25 23:41:00,
2013-01-25 19:01:00,19.4,3.6,30.13,WSW,257,0.0,0.0,50,0.00,,---,0.00,VWS V12.08,2013-01-26 00:01:00,
2013-01-25 19:21:00,19.4,3.6,30.10,WSW,256,0.0,0.0,50,0.00,,---,0.00,VWS V12.08,2013-01-26 00:21:00,
2013-01-25 19:41:00,19.0,3.3,30.10,WSW,257,0.0,0.0,50,0.00,,---,0.00,VWS V12.08,2013-01-26 00:41:00,
2013-01-25 20:01:00,17.4,1.8,30.10,WSW,257,0.0,0.0,50,0.00,,---,0.00,VWS V12.08,2013-01-26 01:01:00,
2013-01-25 20:21:00,15.4,-0.1,30.10,WSW,257,0.0,0.0,50,0.00,,---,0.00,VWS V12.08,2013-01-26 01:21:00,
2013-01-25 20:41:00,13.6,-1.8,30.10,WSW,256,0.0,0.0,50,0.00,,---,0.00,VWS V12.08,2013-01-26 01:41:00,
2013-01-25 21:01:00,12.0,-3.2,30.10,WSW,257,0.0,0.0,50,0.00,,---,0.00,VWS V12.08,2013-01-26 02:01:00,
2013-01-25 21:21:00,10.8,-4.4,30.07,WSW,256,0.0,0.0,50,0.00,,---,0.00,VWS V12.08,2013-01-26 02:21:00,
2013-01-25 21:41:00,10.2,-4.9,30.07,WSW,257,0.0,0.0,50,0.00,,---,0.00,VWS V12.08,2013-01-26 02:41:00,
2013-01-25 22:01:00,9.7,-5.4,30.07,WSW,257,0.0,0.0,50,0.00,,---,0.00,VWS V12.08,2013-01-26 03:01:00,
2013-01-25 22:21:00,9.3,-5.8,30.07,WSW,256,0.0,0.0,50,0.00,,---,0.00,VWS V12.08,2013-01-26 03:21:00,
2013-01-25 22:41:00,9.7,-5.4,30.07,WSW,256,0.0,0.0,50,0.00,,---,0.00,VWS V12.08,2013-01-26 03:41:00,
2013-01-25 23:01:00,10.6,-4.6,30.07,WSW,258,0.0,0.0,50,0.00,,---,0.00,VWS V12.08,2013-01-26 04:01:00,
2013-01-25 23:21:00,10.9,-4.2,30.07,WSW,257,0.0,0.0,50,0.00,,---,0.00,VWS V12.08,2013-01-26 04:21:00,
2013-01-25 23:41:00,10.4,-4.8,30.07,WSW,256,0.0,0.0,50,0.00,,---,0.00,VWS V12.08,2013-01-26 04:41:00,